East Millstone, New Jersey
Current Conditions -  °F | °C
As of 8:53 PM on Wednesday 17 Dec 2014 (Local Time) from KSMQ Reporting Station
Few Clouds Few Clouds  
Wind Chill: 38°   Ceiling: Unl
Heat Index: 42°   Visibility: 10mi
Dew Point: 28°   Wind: 7mph
Humidity: 58%   Direction: 300°WNW
Pressure: 29.9"   Gusts: NA
Location:  40.5013°N, 74.5325°W
Report Text: KSMQ 180153Z AUTO 30006KT 10SM FEW060 06/M02 A2990 RMK AO2 SLP126 T00561022
Loading
Personal Weather Stations






























Interactive Weather Map New forecast layout! Learn more

10-Day Weather Forecast

Advertisements
Track Severe Weather on mobile